Terminal Aerodrome Forecast
Issued by NWS

Home | Current Version | Previous Version | Text Only | Print | Product List | Glossary On
Versions: 1 2 3 4 5 6 7 8 9 10 11 12 13 14 15 16 17
000
FTAK31 PAJN 300500 RRA
TAFASI
TAF
PASI 300541Z 3006/3106 11009KT P6SM -SHRA SCT020 BKN035 OVC050
      TEMPO 3006/3008 18011G18KT 4SM SHRA BR BKN020
     FM300800 10008KT P6SM -SHRA BKN030 OVC045
     FM301300 09006KT P6SM VCSH SCT030 BKN060
     FM301600 06006KT P6SM FEW080 SCT200
     FM302000 34007KT P6SM BKN180
     FM310000 32008KT P6SM FEW035 BKN110=

USA.gov is the U.S. government's official web portal to all federal, state and local government web resources and services.